Time;durP1;ratioP1;P1;durP2;ratioP2;P2;SDS_P1;SDS_P2;PMS_P1;PMS_P2;Temp;Humidity;BMP_temperature;BMP_pressure;BME280_temperature;BME280_humidity;BME280_pressure;Samples;Min_cycle;Max_cycle;Signal;HPM_P1;HPM_P2
2023/01/06 00:01:11;;;;;;;20.83;13.93;;;;;;;12.02;81.07;99995.84;5013231;28;20534;-77
2023/01/06 00:03:38;;;;;;;21.45;13.90;;;;;;;12.04;81.39;99983.41;4992560;28;20060;-78
2023/01/06 00:06:06;;;;;;;20.35;13.15;;;;;;;12.05;81.25;99982.47;5011267;28;20077;-76
2023/01/06 00:08:34;;;;;;;22.27;13.20;;;;;;;12.06;81.31;99979.78;5012960;28;20038;-76
2023/01/06 00:11:08;;;;;;;17.95;12.30;;;;;;;12.03;80.62;99974.63;5013212;28;20085;-76
2023/01/06 00:13:35;;;;;;;19.98;11.25;;;;;;;12.05;81.26;99977.19;5142965;22;20302;-79
2023/01/06 00:16:13;;;;;;;16.00;10.45;;;;;;;12.01;80.32;99973.03;5031355;28;20053;-79
2023/01/06 00:18:40;;;;;;;14.38;9.77;;;;;;;12.05;81.00;99972.81;5014258;28;20176;-79
2023/01/06 00:21:08;;;;;;;13.52;10.40;;;;;;;12.06;80.97;99961.31;5031491;28;20057;-80
2023/01/06 00:23:35;;;;;;;16.65;9.52;;;;;;;12.06;81.01;99963.94;5032035;28;20060;-79
2023/01/06 00:26:03;;;;;;;19.38;9.93;;;;;;;12.06;80.90;99957.81;5031415;28;20108;-79
2023/01/06 00:28:29;;;;;;;16.55;9.57;;;;;;;12.06;80.73;99963.09;5031660;28;20487;-79
2023/01/06 00:30:56;;;;;;;15.00;9.52;;;;;;;12.06;80.65;99963.09;5012956;28;20049;-79
2023/01/06 00:33:23;;;;;;;14.77;9.40;;;;;;;12.06;80.57;99958.66;5031456;28;20084;-79
2023/01/06 00:35:50;;;;;;;16.00;9.07;;;;;;;12.04;80.59;99952.59;5026974;28;20591;-79
2023/01/06 00:38:16;;;;;;;13.75;8.90;;;;;;;12.05;80.49;99954.34;5025903;28;20057;-79
2023/01/06 00:40:43;;;;;;;13.07;8.50;;;;;;;12.07;80.52;99948.97;5030979;28;20053;-79
2023/01/06 00:43:09;;;;;;;16.65;8.43;;;;;;;12.06;80.60;99944.63;5030929;28;20057;-79
2023/01/06 00:45:35;;;;;;;12.93;7.88;;;;;;;12.05;80.51;99941.16;5029990;28;20068;-79
2023/01/06 00:48:02;;;;;;;9.90;6.90;;;;;;;12.05;80.26;99951.69;5028595;28;20550;-79
2023/01/06 00:50:29;;;;;;;13.27;7.65;;;;;;;12.05;80.17;99950.81;5030817;28;20622;-79
2023/01/06 00:52:55;;;;;;;14.18;7.18;;;;;;;12.04;80.25;99946.47;5030981;28;20107;-78
2023/01/06 00:55:21;;;;;;;9.93;6.35;;;;;;;12.03;80.36;99956.16;5027051;28;20053;-79
2023/01/06 00:57:51;;;;;;;14.82;6.03;;;;;;;12.02;79.93;99961.53;5030524;28;20057;-79
2023/01/06 01:00:18;;;;;;;11.82;5.82;;;;;;;12.03;80.34;99950.06;5030769;28;20068;-79
2023/01/06 01:02:44;;;;;;;11.23;6.18;;;;;;;12.02;80.24;99946.56;5030776;28;20053;-79
2023/01/06 01:05:11;;;;;;;10.20;5.85;;;;;;;12.01;80.26;99934.31;5030468;28;20439;-79
2023/01/06 01:07:39;;;;;;;10.13;5.72;;;;;;;12.02;80.34;99941.28;5030332;28;20049;-79
2023/01/06 01:10:07;;;;;;;9.98;5.22;;;;;;;12.03;80.08;99936.88;5030862;28;20707;-78
2023/01/06 01:12:33;;;;;;;7.45;4.85;;;;;;;12.00;80.22;99932.59;5029562;28;20570;-78
2023/01/06 01:14:59;;;;;;;7.40;4.70;;;;;;;12.02;80.14;99943.94;5029527;28;20502;-79
2023/01/06 01:17:29;;;;;;;9.27;5.20;;;;;;;12.01;79.82;99938.75;5026284;28;20406;-79
2023/01/06 01:19:58;;;;;;;13.43;4.70;;;;;;;12.00;80.03;99937.88;5022795;28;20049;-79
2023/01/06 01:22:27;;;;;;;11.50;4.60;;;;;;;11.99;79.91;99937.03;5012291;28;20111;-79
2023/01/06 01:24:53;;;;;;;10.07;5.65;;;;;;;11.99;80.28;99939.69;5030107;28;20046;-80
2023/01/06 01:27:19;;;;;;;9.85;4.22;;;;;;;12.00;80.08;99943.16;5029844;28;20053;-79
2023/01/06 01:29:46;;;;;;;8.35;4.65;;;;;;;12.00;80.22;99929.97;5030303;28;20076;-80
2023/01/06 01:32:12;;;;;;;6.72;4.07;;;;;;;12.01;79.90;99929.03;5029913;28;20454;-79
2023/01/06 01:34:39;;;;;;;9.73;4.45;;;;;;;12.02;80.07;99937.78;5030118;28;20049;-79
2023/01/06 01:37:05;;;;;;;9.48;4.70;;;;;;;12.02;79.71;99941.28;5030022;28;20466;-78
2023/01/06 01:39:32;;;;;;;8.45;3.65;;;;;;;12.02;80.14;99935.16;5012514;28;20060;-79
2023/01/06 01:41:58;;;;;;;6.85;3.63;;;;;;;12.02;79.89;99940.44;5011279;28;20049;-79
2023/01/06 01:44:46;;;;;;;8.70;4.18;;;;;;;11.98;78.94;99934.50;5029943;28;20132;-78
2023/01/06 01:47:39;;;;;;;6.53;3.88;;;;;;;12.01;79.30;99930.81;5012203;28;20057;-79
2023/01/06 01:50:33;;;;;;;6.82;3.78;;;;;;;12.01;79.27;99930.81;5010191;28;20046;-79
2023/01/06 01:53:17;;;;;;;7.50;4.05;;;;;;;12.03;79.61;99932.44;5029767;28;20107;-79
2023/01/06 01:55:44;;;;;;;8.38;4.30;;;;;;;12.04;80.07;99923.56;5029792;28;20143;-79
2023/01/06 01:58:24;;;;;;;9.18;4.25;;;;;;;12.01;79.38;99926.41;5011968;28;20057;-78
2023/01/06 02:00:51;;;;;;;11.93;4.32;;;;;;;12.04;79.99;99934.13;5030008;28;20135;-79
2023/01/06 02:03:19;;;;;;;6.38;4.10;;;;;;;12.02;79.82;99922.81;5029447;28;20388;-79
2023/01/06 02:05:49;;;;;;;11.65;4.55;;;;;;;12.02;79.60;99932.50;5029639;28;20123;-78
2023/01/06 02:08:31;;;;;;;7.68;3.97;;;;;;;12.01;78.99;99928.19;5029478;28;20124;-79
2023/01/06 02:10:58;;;;;;;6.83;4.20;;;;;;;12.04;80.18;99923.56;5029610;28;20107;-79
2023/01/06 02:13:25;;;;;;;4.93;4.05;;;;;;;12.04;79.93;99920.09;5029143;28;20099;-79
2023/01/06 02:15:59;;;;;;;9.80;4.30;;;;;;;12.03;79.50;99926.31;5029495;28;20053;-79
2023/01/06 02:18:44;;;;;;;6.93;3.85;;;;;;;12.05;79.84;99925.31;5029313;28;20056;-79
2023/01/06 02:21:17;;;;;;;9.00;4.10;;;;;;;12.01;79.18;99918.50;5011912;28;20499;-78
2023/01/06 02:23:54;;;;;;;;;;;;;;;12.03;78.27;99921.88;5012400;28;20179;-79
2023/01/06 02:27:04;;;;;;;11.25;4.32;;;;;;;12.03;78.71;99911.31;5011946;28;19971;-78
2023/01/06 02:29:59;;;;;;;9.85;4.18;;;;;;;12.03;78.78;99905.22;5026216;28;20061;-79
2023/01/06 02:32:39;;;;;;;6.68;3.97;;;;;;;12.01;78.44;99904.44;5027234;28;20053;-79
2023/01/06 02:35:20;;;;;;;9.65;4.05;;;;;;;12.02;79.19;99899.06;5022749;28;20059;-79
2023/01/06 02:37:54;;;;;;;9.10;4.32;;;;;;;12.03;79.99;99903.41;5029192;28;20107;-78
2023/01/06 02:40:24;;;;;;;9.95;4.03;;;;;;;12.02;79.42;99900.84;5029568;28;20057;-79
2023/01/06 02:42:59;;;;;;;8.60;4.13;;;;;;;12.01;79.28;99889.47;5029334;28;20053;-79
2023/01/06 02:46:05;;;;;;;6.95;4.82;;;;;;;11.98;79.11;99884.38;5029295;28;20099;-79
2023/01/06 02:48:47;;;;;;;8.32;4.45;;;;;;;12.01;78.89;99889.47;5019366;28;20100;-78
2023/01/06 02:51:21;;;;;;;10.48;4.35;;;;;;;12.01;79.16;99894.75;5028611;28;20423;-79
2023/01/06 02:53:54;;;;;;;8.38;5.00;;;;;;;12.01;78.58;99889.47;5029646;28;20112;-78
2023/01/06 02:56:24;;;;;;;11.05;4.78;;;;;;;12.02;79.59;99885.88;5032810;28;20072;-79
2023/01/06 02:59:01;;;;;;;7.07;4.63;;;;;;;12.05;79.84;99879.56;5032573;28;20045;-79
2023/01/06 03:01:35;;;;;;;10.13;5.13;;;;;;;12.03;79.01;99868.28;5032803;28;20480;-79
2023/01/06 03:04:06;;;;;;;6.95;5.00;;;;;;;12.04;79.21;99875.25;5008248;28;20052;-79
2023/01/06 03:06:35;;;;;;;11.50;5.60;;;;;;;12.05;79.41;99862.00;5015137;28;20053;-79
2023/01/06 03:09:04;;;;;;;13.18;5.90;;;;;;;12.07;79.62;99862.72;5032839;28;20087;-79
2023/01/06 03:11:32;;;;;;;9.02;5.43;;;;;;;12.08;79.71;99861.78;5015122;28;20046;-79
2023/01/06 03:14:08;;;;;;;9.93;5.32;;;;;;;12.08;78.52;99869.69;5032788;28;20392;-79
2023/01/06 03:16:35;;;;;;;8.10;5.47;;;;;;;12.14;79.65;99870.28;5032307;28;20053;-79
2023/01/06 03:19:02;;;;;;;8.95;5.55;;;;;;;12.15;79.63;99864.06;5014914;28;20095;-79
2023/01/06 03:21:38;;;;;;;8.32;4.93;;;;;;;12.12;78.33;99871.19;5015014;28;20049;-80
2023/01/06 03:24:07;;;;;;;10.25;5.35;;;;;;;12.17;79.43;99864.78;5032498;28;20458;-79
2023/01/06 03:26:34;;;;;;;7.50;4.78;;;;;;;12.17;79.34;99860.38;5014783;28;20053;-79
2023/01/06 03:29:06;;;;;;;13.60;5.43;;;;;;;12.15;78.80;99864.88;5032553;28;20759;-79
2023/01/06 03:31:48;;;;;;;6.70;5.00;;;;;;;12.14;77.58;99857.91;5032615;28;20688;-78
2023/01/06 03:34:26;;;;;;;8.40;5.32;;;;;;;12.16;78.12;99852.56;5032310;28;20053;-79
2023/01/06 03:36:59;;;;;;;7.55;4.82;;;;;;;12.15;78.27;99835.84;5032351;28;20103;-79
2023/01/06 03:39:38;;;;;;;7.28;4.90;;;;;;;12.15;77.70;99833.22;5032357;28;20188;-79
2023/01/06 03:45:23;;;;;;;9.55;4.68;;;;;;;12.19;79.12;99834.72;5032255;28;20154;-79
2023/01/06 03:48:21;;;;;;;5.53;4.75;;;;;;;12.13;77.12;99829.84;5032359;28;20483;-79
2023/01/06 03:50:56;;;;;;;9.55;4.45;;;;;;;12.15;78.16;99827.94;5032022;28;20050;-79
2023/01/06 03:53:44;;;;;;;6.03;3.92;;;;;;;12.11;77.38;99827.31;5032405;28;20080;-78
2023/01/06 03:56:25;;;;;;;5.55;3.75;;;;;;;12.13;77.61;99824.56;5031997;28;20053;-79
2023/01/06 03:58:56;;;;;;;7.25;3.47;;;;;;;12.17;78.64;99828.72;5014249;28;20084;-79
2023/01/06 04:01:25;;;;;;;7.03;3.40;;;;;;;12.16;78.76;99821.75;5031777;28;20045;-78
2023/01/06 04:03:53;;;;;;;6.38;3.40;;;;;;;12.17;78.77;99823.44;5031805;28;20462;-79
2023/01/06 04:06:20;;;;;;;6.13;3.00;;;;;;;12.17;78.92;99817.28;5030744;28;20107;-79
2023/01/06 04:08:47;;;;;;;10.57;3.53;;;;;;;12.17;78.79;99817.28;5031659;28;20340;-79
2023/01/06 04:13:59;;;;;;;6.30;2.92;;;;;;;12.17;78.84;99807.59;5031471;28;20053;-79
2023/01/06 04:16:26;;;;;;;5.50;2.63;;;;;;;12.17;78.59;99804.09;5031970;28;20080;-79
2023/01/06 04:18:52;;;;;;;2.97;2.67;;;;;;;12.17;78.63;99804.97;5031574;28;20049;-79
2023/01/06 04:21:18;;;;;;;8.23;2.90;;;;;;;12.15;78.41;99804.19;5031520;28;20053;-79
2023/01/06 04:23:45;;;;;;;4.95;2.50;;;;;;;12.15;78.64;99803.38;5031520;28;20050;-80
2023/01/06 04:26:11;;;;;;;5.00;2.58;;;;;;;12.14;78.46;99789.31;5031314;28;20400;-79
2023/01/06 04:28:38;;;;;;;5.22;2.65;;;;;;;12.12;78.28;99789.41;5031334;28;20045;-79
2023/01/06 04:31:04;;;;;;;5.03;2.60;;;;;;;12.13;78.32;99787.63;5031320;28;20054;-79
2023/01/06 04:33:31;;;;;;;6.65;2.20;;;;;;;12.10;78.20;99786.03;5031357;28;20057;-79
2023/01/06 04:35:57;;;;;;;6.50;2.00;;;;;;;12.07;78.18;99780.94;5031306;28;20053;-79
2023/01/06 04:38:24;;;;;;;4.15;2.80;;;;;;;12.05;78.22;99766.13;5030952;28;20049;-79
2023/01/06 04:40:50;;;;;;;4.40;2.05;;;;;;;12.02;78.52;99759.25;5031124;28;20053;-79
2023/01/06 04:43:16;;;;;;;6.82;2.38;;;;;;;12.01;78.54;99767.25;5031135;28;20057;-78
2023/01/06 04:45:43;;;;;;;4.43;2.03;;;;;;;11.98;78.74;99770.94;5031079;28;20068;-79
2023/01/06 04:48:11;;;;;;;7.18;2.63;;;;;;;11.96;78.53;99780.75;5030933;28;20045;-79
2023/01/06 04:50:37;;;;;;;5.50;1.95;;;;;;;11.91;78.48;99759.94;5031134;28;20050;-78
2023/01/06 04:53:05;;;;;;;4.82;2.00;;;;;;;11.91;78.71;99751.16;5030888;28;20057;-79
2023/01/06 04:55:32;;;;;;;5.15;2.20;;;;;;;11.89;78.81;99747.78;5030725;28;20107;-79
2023/01/06 04:57:58;;;;;;;5.40;2.13;;;;;;;11.85;78.74;99737.41;5030768;28;20061;-79
2023/01/06 05:00:24;;;;;;;2.67;1.85;;;;;;;11.84;78.68;99727.81;5030775;28;20053;-79
2023/01/06 05:02:51;;;;;;;5.10;2.05;;;;;;;11.82;78.84;99744.69;5030773;28;20499;-78
2023/01/06 05:05:17;;;;;;;5.78;1.95;;;;;;;11.80;79.01;99736.84;5030645;28;20049;-79
2023/01/06 05:07:43;;;;;;;3.72;1.58;;;;;;;11.81;78.83;99749.09;5030384;28;20080;-79
2023/01/06 05:10:10;;;;;;;7.97;1.60;;;;;;;11.80;78.84;99742.13;5030741;28;20085;-78
2023/01/06 05:12:36;;;;;;;5.03;1.52;;;;;;;11.81;78.79;99745.63;5030768;28;20049;-79
2023/01/06 05:15:04;;;;;;;3.10;1.52;;;;;;;11.80;78.30;99754.47;5030416;28;20396;-79
2023/01/06 05:17:30;;;;;;;2.88;1.40;;;;;;;11.81;78.70;99743.81;5012716;28;20062;-79
2023/01/06 05:19:57;;;;;;;3.63;1.50;;;;;;;11.83;78.71;99735.81;5030815;28;20049;-79
2023/01/06 05:22:23;;;;;;;4.68;1.60;;;;;;;11.83;78.31;99728.75;5030382;28;20133;-78
2023/01/06 05:24:49;;;;;;;2.92;1.30;;;;;;;11.85;78.62;99724.22;5030372;28;20080;-79
2023/01/06 05:27:16;;;;;;;5.68;1.60;;;;;;;11.87;78.07;99734.69;5030392;28;20049;-79
2023/01/06 05:29:42;;;;;;;3.72;1.55;;;;;;;11.89;78.31;99729.31;5030365;28;20045;-79
2023/01/06 05:32:09;;;;;;;2.58;1.38;;;;;;;11.88;78.15;99730.28;5012662;28;20046;-79
2023/01/06 05:34:35;;;;;;;4.32;1.70;;;;;;;11.90;77.80;99717.81;5030160;28;20119;-79
2023/01/06 05:37:01;;;;;;;2.38;1.25;;;;;;;11.90;77.70;99716.03;5029904;28;20061;-79
2023/01/06 05:39:28;;;;;;;2.63;1.60;;;;;;;11.90;77.81;99712.53;5029835;28;20099;-79
2023/01/06 05:41:54;;;;;;;5.28;1.63;;;;;;;11.92;77.68;99729.13;5030315;28;20084;-79
2023/01/06 05:44:20;;;;;;;3.67;1.38;;;;;;;11.93;77.36;99725.53;5029960;28;20073;-79
2023/01/06 05:46:47;;;;;;;5.80;1.70;;;;;;;11.94;77.50;99717.53;5029787;28;20061;-79
2023/01/06 05:49:14;;;;;;;4.45;1.40;;;;;;;11.95;77.43;99723.63;5029952;28;20496;-79
2023/01/06 05:51:40;;;;;;;4.47;1.90;;;;;;;11.95;77.12;99719.22;5030109;28;20504;-79
2023/01/06 05:54:08;;;;;;;3.25;1.63;;;;;;;11.95;76.93;99731.56;5029908;28;20064;-79
2023/01/06 05:56:35;;;;;;;4.20;1.52;;;;;;;11.96;76.97;99725.34;5012263;28;20111;-79
2023/01/06 05:59:01;;;;;;;3.67;1.65;;;;;;;11.97;76.87;99734.97;5029711;28;20496;-79
2023/01/06 06:01:30;;;;;;;7.97;1.70;;;;;;;11.96;76.93;99735.91;5029726;28;20115;-79
2023/01/06 06:03:57;;;;;;;4.25;1.60;;;;;;;11.97;76.89;99724.41;5029734;28;20053;-79
2023/01/06 06:06:26;;;;;;;3.17;1.52;;;;;;;11.98;76.34;99726.94;5012037;28;20404;-79
2023/01/06 06:08:53;;;;;;;4.97;1.75;;;;;;;12.01;76.89;99722.41;5029787;28;20065;-79
2023/01/06 06:11:21;;;;;;;4.13;1.58;;;;;;;11.99;76.06;99725.13;5029642;28;20135;-79
2023/01/06 06:14:07;;;;;;;3.70;1.65;;;;;;;11.96;74.58;99715.63;4976532;23;20390;-77
2023/01/06 06:16:37;;;;;;;6.05;1.77;;;;;;;12.02;75.71;99721.47;4993351;28;20046;-76
2023/01/06 06:19:12;;;;;;;4.40;1.90;;;;;;;12.00;74.85;99718.91;4976208;28;20057;-77
2023/01/06 06:21:47;;;;;;;5.38;1.77;;;;;;;12.01;76.16;99714.50;4975641;28;20058;-77
2023/01/06 06:24:22;;;;;;;4.93;1.98;;;;;;;11.99;74.59;99726.00;4992864;28;20050;-77
2023/01/06 06:26:53;;;;;;;5.07;2.10;;;;;;;12.03;76.45;99715.25;4989772;28;20039;-77
2023/01/06 06:29:24;;;;;;;6.25;2.35;;;;;;;12.00;75.04;99711.00;4972715;28;20109;-77
2023/01/06 06:31:55;;;;;;;4.35;2.10;;;;;;;12.02;76.43;99709.13;4990579;28;20050;-77
2023/01/06 06:34:24;;;;;;;4.80;2.40;;;;;;;12.03;76.12;99709.97;4987665;28;20407;-76
2023/01/06 06:36:51;;;;;;;4.05;2.20;;;;;;;12.02;76.03;99703.00;4990940;28;20073;-77
2023/01/06 06:39:17;;;;;;;2.88;2.00;;;;;;;12.02;76.27;99705.63;4990931;28;20419;-77
2023/01/06 06:41:44;;;;;;;5.10;2.17;;;;;;;12.02;76.13;99700.34;4991032;28;20104;-77
2023/01/06 06:44:10;;;;;;;7.07;2.38;;;;;;;12.03;76.29;99696.78;4973752;28;20086;-76
2023/01/06 06:46:37;;;;;;;5.80;2.00;;;;;;;12.02;75.86;99711.75;4990971;28;20100;-77
2023/01/06 06:49:04;;;;;;;7.35;2.22;;;;;;;12.01;75.98;99685.47;4991219;28;20116;-77
2023/01/06 06:51:31;;;;;;;5.40;2.10;;;;;;;12.00;75.92;99689.88;4991149;28;20050;-77
2023/01/06 06:53:57;;;;;;;5.50;1.90;;;;;;;12.01;75.88;99691.59;4991167;28;20096;-76
2023/01/06 06:56:24;;;;;;;4.70;2.60;;;;;;;12.02;76.20;99693.28;4990803;28;20129;-77
2023/01/06 06:58:51;;;;;;;3.88;1.92;;;;;;;12.01;75.77;99688.13;4990773;28;20046;-76
2023/01/06 07:01:19;;;;;;;5.47;1.80;;;;;;;12.01;75.99;99667.88;4991009;28;20148;-78
2023/01/06 07:03:47;;;;;;;3.83;1.80;;;;;;;12.01;75.76;99670.50;4991139;28;20081;-76
2023/01/06 07:06:18;;;;;;;5.55;2.30;;;;;;;11.99;75.29;99661.81;4990920;28;20065;-77
2023/01/06 07:08:46;;;;;;;6.75;2.25;;;;;;;11.97;75.66;99656.66;4973706;28;20409;-76
2023/01/06 07:11:12;;;;;;;3.83;1.90;;;;;;;12.01;76.15;99664.38;4973451;28;20050;-76
2023/01/06 07:13:40;;;;;;;7.05;2.30;;;;;;;12.01;75.90;99664.38;4989885;28;20046;-76
2023/01/06 07:16:07;;;;;;;4.75;2.10;;;;;;;11.99;75.94;99667.09;4993032;28;20077;-76
2023/01/06 07:18:34;;;;;;;4.20;1.80;;;;;;;12.02;76.11;99666.06;4987378;28;20050;-76
2023/01/06 07:21:00;;;;;;;6.03;2.58;;;;;;;12.04;76.11;99656.28;4990705;28;20413;-77
2023/01/06 07:23:27;;;;;;;3.90;1.75;;;;;;;12.04;75.85;99640.44;5000680;28;20046;-76
2023/01/06 07:25:59;;;;;;;3.80;1.55;;;;;;;12.03;75.62;99655.41;4989786;28;20061;-78
2023/01/06 07:28:29;;;;;;;3.58;1.88;;;;;;;12.06;75.68;99654.41;4973358;28;20077;-76
2023/01/06 07:30:56;;;;;;;2.75;1.65;;;;;;;12.07;75.81;99637.66;4990843;28;20487;-77
2023/01/06 07:33:23;;;;;;;3.33;1.60;;;;;;;12.07;75.96;99641.09;4990606;28;20050;-77
2023/01/06 07:35:53;;;;;;;6.65;1.90;;;;;;;12.04;73.97;99654.44;5001389;28;20058;-76
2023/01/06 07:38:21;;;;;;;5.53;1.73;;;;;;;12.07;75.86;99656.09;4992389;28;20057;-77
2023/01/06 07:40:47;;;;;;;5.93;2.05;;;;;;;12.09;76.04;99660.34;5011603;28;20132;-77
2023/01/06 07:43:15;;;;;;;2.63;1.63;;;;;;;12.08;76.03;99660.44;5013562;28;20046;-76
2023/01/06 07:45:45;;;;;;;3.65;1.73;;;;;;;12.07;75.38;99664.03;5013560;28;20387;-76
2023/01/06 07:48:11;;;;;;;2.10;1.60;;;;;;;12.06;75.56;99660.53;5013343;28;20058;-77
2023/01/06 07:50:38;;;;;;;3.30;1.60;;;;;;;12.05;75.92;99669.41;5013443;28;20610;-76
2023/01/06 07:53:05;;;;;;;2.35;1.55;;;;;;;12.04;75.53;99658.91;5013192;28;20085;-75
2023/01/06 07:55:31;;;;;;;4.30;1.52;;;;;;;12.03;75.75;99654.59;5013566;28;20137;-76
2023/01/06 07:57:58;;;;;;;2.08;1.40;;;;;;;12.04;76.11;99666.81;5013264;28;20128;-77
2023/01/06 08:00:25;;;;;;;2.33;1.50;;;;;;;12.02;76.01;99666.06;5013387;28;20828;-77
2023/01/06 08:02:51;;;;;;;3.55;1.67;;;;;;;12.01;76.13;99670.50;5013290;28;20089;-77
2023/01/06 08:05:18;;;;;;;4.20;1.83;;;;;;;12.01;76.28;99667.00;5004781;28;20137;-77
2023/01/06 08:07:45;;;;;;;2.97;1.60;;;;;;;11.98;76.21;99668.91;5013256;28;20073;-77
2023/01/06 08:10:11;;;;;;;5.20;1.90;;;;;;;11.96;76.25;99683.97;5013432;28;20558;-75
2023/01/06 08:12:38;;;;;;;2.70;1.80;;;;;;;11.95;76.18;99676.16;5013192;28;20050;-76
2023/01/06 08:15:05;;;;;;;3.90;1.75;;;;;;;11.95;76.57;99678.78;4995079;28;20077;-76
2023/01/06 08:17:32;;;;;;;3.28;1.90;;;;;;;11.94;76.62;99685.88;5012920;28;20050;-75
2023/01/06 08:19:58;;;;;;;4.70;1.80;;;;;;;11.94;76.63;99680.59;5012626;28;20138;-77
2023/01/06 08:22:25;;;;;;;4.60;1.60;;;;;;;11.94;76.88;99692.94;4994199;28;20055;-76
2023/01/06 08:24:51;;;;;;;6.05;2.10;;;;;;;11.96;76.84;99683.97;4990093;28;20106;-76
2023/01/06 08:27:19;;;;;;;3.63;2.10;;;;;;;11.97;76.97;99669.84;4988863;28;20081;-76
2023/01/06 08:29:46;;;;;;;2.95;1.92;;;;;;;11.98;76.66;99702.34;5012800;28;20049;-75
2023/01/06 08:32:13;;;;;;;3.83;1.83;;;;;;;11.98;76.86;99697.94;4995299;28;20061;-75
2023/01/06 08:34:39;;;;;;;2.88;1.80;;;;;;;11.98;76.48;99694.44;5007754;28;20050;-75
2023/01/06 08:37:06;;;;;;;3.95;2.00;;;;;;;11.95;76.63;99708.66;4989572;28;20125;-75
2023/01/06 08:39:33;;;;;;;3.83;2.35;;;;;;;11.95;76.71;99715.72;4992970;28;20166;-76
2023/01/06 08:41:59;;;;;;;3.40;1.77;;;;;;;11.92;76.75;99708.03;4992966;28;20137;-76
2023/01/06 08:44:26;;;;;;;4.20;2.05;;;;;;;11.89;76.79;99724.88;4992890;28;20081;-75
2023/01/06 08:46:52;;;;;;;3.75;2.30;;;;;;;11.84;76.88;99727.81;4975694;28;20137;-76
2023/01/06 08:49:19;;;;;;;2.63;2.17;;;;;;;11.82;77.11;99720.94;4993077;28;20060;-75
2023/01/06 08:51:45;;;;;;;2.33;1.90;;;;;;;11.78;77.21;99725.53;4992274;28;20137;-76
2023/01/06 08:54:13;;;;;;;5.55;2.50;;;;;;;11.76;77.55;99724.81;5012480;28;20096;-77
2023/01/06 08:56:42;;;;;;;4.22;2.75;;;;;;;11.71;77.68;99719.81;4994404;28;20052;-76
2023/01/06 08:59:12;;;;;;;4.32;2.17;;;;;;;11.69;77.92;99713.81;4994608;28;20080;-76
2023/01/06 09:01:39;;;;;;;3.15;2.30;;;;;;;11.69;77.95;99718.22;5011850;28;20053;-76
2023/01/06 09:04:06;;;;;;;3.35;2.25;;;;;;;11.66;78.25;99724.53;5012284;28;20112;-76
2023/01/06 09:06:34;;;;;;;4.45;2.38;;;;;;;11.64;78.32;99723.78;5011953;28;20054;-76
2023/01/06 09:09:03;;;;;;;3.17;2.45;;;;;;;11.63;78.55;99729.16;4994428;28;20140;-76
2023/01/06 09:11:30;;;;;;;5.00;2.10;;;;;;;11.63;78.78;99739.69;5011677;28;20486;-77
2023/01/06 09:13:57;;;;;;;2.38;2.10;;;;;;;11.62;78.92;99732.75;5011797;28;20060;-76
2023/01/06 09:16:23;;;;;;;2.42;2.05;;;;;;;11.63;78.71;99742.34;5011444;28;20050;-76
2023/01/06 09:18:50;;;;;;;3.78;1.90;;;;;;;11.63;79.10;99739.69;4994359;28;20057;-76
2023/01/06 09:21:19;;;;;;;3.65;2.28;;;;;;;11.62;78.93;99753.84;5011762;28;20092;-76
2023/01/06 09:23:47;;;;;;;4.03;2.03;;;;;;;11.62;79.16;99748.56;5011852;28;20058;-77
2023/01/06 09:26:15;;;;;;;3.53;1.95;;;;;;;11.61;79.23;99747.69;5011537;28;20054;-77
2023/01/06 09:28:42;;;;;;;2.80;1.90;;;;;;;11.63;79.27;99750.25;5011010;28;20115;-76
2023/01/06 09:31:09;;;;;;;4.15;2.10;;;;;;;11.59;79.15;99775.97;5011902;28;20112;-77
2023/01/06 09:33:35;;;;;;;2.60;2.22;;;;;;;11.58;79.49;99761.91;5011646;28;20506;-76
2023/01/06 09:36:02;;;;;;;3.38;2.30;;;;;;;11.57;79.59;99768.16;5011778;28;20089;-77
2023/01/06 09:38:29;;;;;;;2.58;2.08;;;;;;;11.59;79.90;99760.97;5011161;28;20045;-77
2023/01/06 09:41:23;;;;;;;3.83;2.25;;;;;;;11.56;79.69;99765.59;5011236;28;20477;-76
2023/01/06 09:43:56;;;;;;;2.45;1.90;;;;;;;11.60;79.95;99770.56;5011479;28;20054;-76
2023/01/06 09:46:28;;;;;;;4.35;2.58;;;;;;;11.60;79.84;99770.56;5004072;28;20074;-76
2023/01/06 09:49:21;;;;;;;2.30;1.98;;;;;;;11.63;80.08;99773.97;4967775;28;20116;-76
2023/01/06 09:51:48;;;;;;;3.10;2.10;;;;;;;11.68;80.43;99774.53;4981528;28;20055;-78
2023/01/06 09:54:21;;;;;;;3.63;2.55;;;;;;;11.69;80.05;99784.13;4983498;28;20528;-77
2023/01/06 09:57:00;;;;;;;5.55;2.60;;;;;;;11.74;80.21;99782.09;5004467;28;20557;-77
2023/01/06 09:59:44;;;;;;;3.17;2.35;;;;;;;11.74;79.65;99800.53;5011087;28;20064;-76
2023/01/06 10:02:20;;;;;;;2.53;2.33;;;;;;;11.78;79.48;99802.03;5010986;28;20061;-77
2023/01/06 10:04:46;;;;;;;2.83;2.53;;;;;;;11.84;80.14;99790.25;5010665;28;20061;-76
2023/01/06 10:07:29;;;;;;;3.85;2.72;;;;;;;11.84;79.67;99799.03;5010832;28;20058;-77
2023/01/06 10:10:16;;;;;;;2.67;2.47;;;;;;;11.88;79.46;99801.47;5011160;28;20559;-76
2023/01/06 10:13:09;;;;;;;6.10;3.35;;;;;;;11.91;79.48;99796.84;5010755;28;20429;-76
2023/01/06 10:15:36;;;;;;;3.80;2.22;;;;;;;11.98;79.96;99799.97;5011382;28;20144;-75
2023/01/06 10:18:08;;;;;;;4.15;2.30;;;;;;;12.01;79.89;99802.41;5009631;28;20058;-76
2023/01/06 10:20:50;;;;;;;3.60;2.60;;;;;;;12.00;78.66;99805.97;5011050;28;20046;-76
2023/01/06 10:23:52;;;;;;;2.80;2.45;;;;;;;12.03;79.00;99818.16;5011008;28;20148;-77
2023/01/06 10:26:42;;;;;;;2.90;2.10;;;;;;;12.07;79.02;99807.31;5002507;28;20101;-76
2023/01/06 10:29:15;;;;;;;5.32;2.42;;;;;;;12.12;79.08;99809.69;5010936;28;20061;-77
2023/01/06 10:31:44;;;;;;;5.47;2.47;;;;;;;12.17;80.13;99814.66;5011020;28;20050;-76
2023/01/06 10:34:22;;;;;;;3.95;2.65;;;;;;;12.18;78.42;99814.56;5010977;28;20045;-76
2023/01/06 10:37:00;;;;;;;2.63;2.40;;;;;;;12.26;79.11;99819.34;5010551;28;20189;-76
2023/01/06 10:39:28;;;;;;;3.92;2.72;;;;;;;12.32;79.76;99818.97;5010639;28;20053;-76
2023/01/06 10:44:54;;;;;;;4.97;2.65;;;;;;;12.45;79.70;99810.28;5010551;28;20052;-77
2023/01/06 10:47:29;;;;;;;5.15;3.55;;;;;;;12.47;78.69;99816.28;5010557;28;20151;-77
2023/01/06 10:49:57;;;;;;;4.03;3.08;;;;;;;12.53;79.16;99820.34;4993219;28;20066;-76
2023/01/06 10:52:25;;;;;;;5.63;2.80;;;;;;;12.57;79.13;99819.19;5010697;28;20145;-77
2023/01/06 10:54:58;;;;;;;3.28;2.40;;;;;;;12.58;78.32;99823.53;5010703;28;20085;-76
2023/01/06 10:57:29;;;;;;;3.22;2.75;;;;;;;12.61;78.63;99828.63;5003750;28;20061;-76
2023/01/06 11:00:16;;;;;;;2.88;2.33;;;;;;;12.59;77.07;99835.78;5010776;28;20049;-76
2023/01/06 11:03:07;;;;;;;3.17;2.20;;;;;;;12.62;77.29;99843.50;5010467;28;20053;-77
2023/01/06 11:06:13;;;;;;;3.40;2.58;;;;;;;12.60;76.40;99837.50;4992911;28;20406;-76
2023/01/06 11:08:40;;;;;;;2.97;2.13;;;;;;;12.63;77.13;99847.84;5010750;28;20136;-77
2023/01/06 11:11:12;;;;;;;2.75;1.75;;;;;;;12.58;76.01;99848.16;5010865;28;20053;-76
2023/01/06 11:13:56;;;;;;;4.13;1.80;;;;;;;12.55;76.10;99856.25;5009903;28;20085;-76
2023/01/06 11:16:35;;;;;;;2.47;1.80;;;;;;;12.47;74.72;99856.75;5014299;28;20054;-76
2023/01/06 11:19:04;;;;;;;2.78;1.70;;;;;;;12.45;76.00;99848.06;5013885;28;20103;-76
2023/01/06 11:21:43;;;;;;;2.50;1.67;;;;;;;12.36;74.25;99841.59;5013913;28;20461;-76
2023/01/06 11:24:22;;;;;;;4.10;1.70;;;;;;;12.32;74.21;99850.66;5013940;28;20058;-76
2023/01/06 11:26:53;;;;;;;4.35;1.85;;;;;;;12.29;75.27;99855.28;5013900;28;20060;-76
2023/01/06 11:29:24;;;;;;;2.05;1.30;;;;;;;12.25;75.26;99846.69;5013894;28;20053;-76
2023/01/06 11:31:51;;;;;;;6.32;1.60;;;;;;;12.25;76.82;99854.63;5013770;28;20498;-76
2023/01/06 11:34:24;;;;;;;4.20;1.45;;;;;;;12.27;77.97;99860.66;4996215;28;20133;-76
2023/01/06 11:36:52;;;;;;;4.93;1.35;;;;;;;12.45;82.77;99857.81;5013796;28;20093;-76
2023/01/06 11:39:26;;;;;;;4.30;1.38;;;;;;;12.70;81.69;99841.22;5013720;28;20046;-76
2023/01/06 11:41:54;;;;;;;4.88;1.33;;;;;;;13.13;88.00;99839.38;5013585;28;20544;-77
2023/01/06 11:44:35;;;;;;;4.95;1.20;;;;;;;13.66;84.55;99854.38;5013979;28;20049;-76
2023/01/06 11:47:16;;;;;;;2.72;0.98;;;;;;;14.26;83.31;99851.16;5013573;28;20104;-76
2023/01/06 11:49:47;;;;;;;4.68;1.10;;;;;;;14.80;81.20;99854.44;5013508;28;20101;-76
2023/01/06 11:52:17;;;;;;;4.07;1.20;;;;;;;15.25;79.11;99859.03;5013427;28;20165;-76
2023/01/06 11:54:44;;;;;;;1.95;1.00;;;;;;;15.61;77.67;99851.94;5013279;28;20085;-76
2023/01/06 11:57:29;;;;;;;4.57;1.48;;;;;;;15.82;70.49;99848.56;5013438;28;20056;-77